sensor_id;sensor_type;location;lat;lon;timestamp;pressure;altitude;pressure_sealevel;temperature;humidity
46379;BME280;32084;42.254;22.744;2022-07-06T00:01:45;95240.38;;;21.05;87.66
46379;BME280;32084;42.254;22.744;2022-07-06T00:04:12;95249.50;;;21.11;87.99
46379;BME280;32084;42.254;22.744;2022-07-06T00:06:38;95245.50;;;21.13;87.75
46379;BME280;32084;42.254;22.744;2022-07-06T00:09:05;95247.63;;;21.11;86.42
46379;BME280;32084;42.254;22.744;2022-07-06T00:11:31;95245.19;;;21.03;86.79
46379;BME280;32084;42.254;22.744;2022-07-06T00:13:57;95243.59;;;20.95;87.78
46379;BME280;32084;42.254;22.744;2022-07-06T00:16:23;95235.88;;;20.92;87.21
46379;BME280;32084;42.254;22.744;2022-07-06T00:18:49;95230.44;;;20.92;87.22
46379;BME280;32084;42.254;22.744;2022-07-06T00:21:15;95244.34;;;20.84;87.22
46379;BME280;32084;42.254;22.744;2022-07-06T00:23:41;95232.84;;;20.82;86.43
46379;BME280;32084;42.254;22.744;2022-07-06T00:26:07;95227.31;;;20.70;87.39
46379;BME280;32084;42.254;22.744;2022-07-06T00:28:34;95230.34;;;20.80;86.06
46379;BME280;32084;42.254;22.744;2022-07-06T00:31:00;95231.91;;;20.95;85.36
46379;BME280;32084;42.254;22.744;2022-07-06T00:33:26;95217.72;;;20.67;86.76
46379;BME280;32084;42.254;22.744;2022-07-06T00:35:52;95218.97;;;20.40;87.66
46379;BME280;32084;42.254;22.744;2022-07-06T00:38:18;95219.50;;;20.23;87.79
46379;BME280;32084;42.254;22.744;2022-07-06T00:40:44;95220.19;;;20.19;88.10
46379;BME280;32084;42.254;22.744;2022-07-06T00:43:10;95216.56;;;20.25;88.12
46379;BME280;32084;42.254;22.744;2022-07-06T00:45:36;95214.66;;;20.32;88.37
46379;BME280;32084;42.254;22.744;2022-07-06T00:48:02;95211.09;;;20.32;88.73
46379;BME280;32084;42.254;22.744;2022-07-06T00:50:28;95206.00;;;20.42;89.03
46379;BME280;32084;42.254;22.744;2022-07-06T00:52:55;95202.75;;;20.58;87.10
46379;BME280;32084;42.254;22.744;2022-07-06T00:55:23;95210.25;;;20.63;86.61
46379;BME280;32084;42.254;22.744;2022-07-06T00:57:49;95204.22;;;20.61;86.57
46379;BME280;32084;42.254;22.744;2022-07-06T01:00:16;95197.78;;;20.48;86.93
46379;BME280;32084;42.254;22.744;2022-07-06T01:02:43;95200.06;;;20.26;87.74
46379;BME280;32084;42.254;22.744;2022-07-06T01:05:10;95200.91;;;20.27;87.75
46379;BME280;32084;42.254;22.744;2022-07-06T01:07:37;95199.19;;;20.33;88.90
46379;BME280;32084;42.254;22.744;2022-07-06T01:10:04;95190.09;;;20.45;87.93
46379;BME280;32084;42.254;22.744;2022-07-06T01:12:30;95179.03;;;20.47;86.81
46379;BME280;32084;42.254;22.744;2022-07-06T01:14:57;95168.25;;;20.08;86.11
46379;BME280;32084;42.254;22.744;2022-07-06T01:17:23;95173.84;;;19.82;87.36
46379;BME280;32084;42.254;22.744;2022-07-06T01:19:49;95166.81;;;19.67;88.43
46379;BME280;32084;42.254;22.744;2022-07-06T01:22:15;95168.75;;;19.60;88.56
46379;BME280;32084;42.254;22.744;2022-07-06T01:24:41;95170.94;;;19.77;87.91
46379;BME280;32084;42.254;22.744;2022-07-06T01:27:07;95175.47;;;19.89;87.82
46379;BME280;32084;42.254;22.744;2022-07-06T01:29:34;95173.03;;;19.81;88.38
46379;BME280;32084;42.254;22.744;2022-07-06T01:32:00;95177.75;;;19.93;88.78
46379;BME280;32084;42.254;22.744;2022-07-06T01:34:26;95173.75;;;19.95;87.95
46379;BME280;32084;42.254;22.744;2022-07-06T01:36:52;95182.59;;;19.84;87.65
46379;BME280;32084;42.254;22.744;2022-07-06T01:39:19;95186.09;;;19.46;86.87
46379;BME280;32084;42.254;22.744;2022-07-06T01:41:45;95189.31;;;19.29;87.58
46379;BME280;32084;42.254;22.744;2022-07-06T01:44:11;95189.78;;;19.13;89.52
46379;BME280;32084;42.254;22.744;2022-07-06T01:46:37;95196.63;;;19.22;90.00
46379;BME280;32084;42.254;22.744;2022-07-06T01:49:03;95188.00;;;19.39;89.65
46379;BME280;32084;42.254;22.744;2022-07-06T01:51:29;95195.09;;;19.40;89.24
46379;BME280;32084;42.254;22.744;2022-07-06T01:53:55;95193.22;;;19.47;90.13
46379;BME280;32084;42.254;22.744;2022-07-06T01:56:21;95207.72;;;19.66;89.12
46379;BME280;32084;42.254;22.744;2022-07-06T01:58:48;95206.44;;;19.68;87.94
46379;BME280;32084;42.254;22.744;2022-07-06T02:01:17;95198.91;;;19.70;87.83
46379;BME280;32084;42.254;22.744;2022-07-06T02:03:44;95198.91;;;19.70;87.33
46379;BME280;32084;42.254;22.744;2022-07-06T02:06:10;95201.47;;;19.65;87.89
46379;BME280;32084;42.254;22.744;2022-07-06T02:08:37;95198.81;;;19.52;87.51
46379;BME280;32084;42.254;22.744;2022-07-06T02:11:04;95201.69;;;19.57;87.71
46379;BME280;32084;42.254;22.744;2022-07-06T02:13:30;95198.06;;;19.77;86.16
46379;BME280;32084;42.254;22.744;2022-07-06T02:15:56;95205.00;;;19.66;86.35
46379;BME280;32084;42.254;22.744;2022-07-06T02:18:22;95201.91;;;19.62;86.52
46379;BME280;32084;42.254;22.744;2022-07-06T02:20:49;95196.13;;;19.39;87.09
46379;BME280;32084;42.254;22.744;2022-07-06T02:23:15;95193.22;;;19.40;88.39
46379;BME280;32084;42.254;22.744;2022-07-06T02:25:41;95194.84;;;19.48;88.02
46379;BME280;32084;42.254;22.744;2022-07-06T02:28:07;95195.94;;;19.40;87.45
46379;BME280;32084;42.254;22.744;2022-07-06T02:30:33;95185.56;;;19.30;86.76
46379;BME280;32084;42.254;22.744;2022-07-06T02:32:59;95190.78;;;19.25;87.29
46379;BME280;32084;42.254;22.744;2022-07-06T02:35:25;95196.41;;;19.30;86.95
46379;BME280;32084;42.254;22.744;2022-07-06T02:37:51;95199.50;;;19.34;86.36
46379;BME280;32084;42.254;22.744;2022-07-06T02:40:17;95198.03;;;19.38;86.57
46379;BME280;32084;42.254;22.744;2022-07-06T02:42:43;95201.13;;;19.48;85.74
46379;BME280;32084;42.254;22.744;2022-07-06T02:45:09;95204.06;;;19.47;86.34
46379;BME280;32084;42.254;22.744;2022-07-06T02:47:36;95202.69;;;19.18;85.88
46379;BME280;32084;42.254;22.744;2022-07-06T02:50:03;95209.03;;;18.91;86.66
46379;BME280;32084;42.254;22.744;2022-07-06T02:52:29;95207.53;;;19.09;87.55
46379;BME280;32084;42.254;22.744;2022-07-06T02:54:55;95203.53;;;19.11;87.13
46379;BME280;32084;42.254;22.744;2022-07-06T02:57:21;95210.69;;;18.92;86.52
46379;BME280;32084;42.254;22.744;2022-07-06T02:59:47;95215.47;;;18.90;84.91
46379;BME280;32084;42.254;22.744;2022-07-06T03:02:15;95204.22;;;18.73;86.83
46379;BME280;32084;42.254;22.744;2022-07-06T03:04:42;95221.31;;;18.74;87.90
46379;BME280;32084;42.254;22.744;2022-07-06T03:07:08;95224.88;;;18.61;88.57
46379;BME280;32084;42.254;22.744;2022-07-06T03:09:34;95211.75;;;18.65;88.43
46379;BME280;32084;42.254;22.744;2022-07-06T03:12:00;95224.22;;;18.79;88.14
46379;BME280;32084;42.254;22.744;2022-07-06T03:14:26;95225.91;;;18.87;88.42
46379;BME280;32084;42.254;22.744;2022-07-06T03:16:52;95224.66;;;18.89;88.22
46379;BME280;32084;42.254;22.744;2022-07-06T03:19:19;95231.31;;;18.87;88.52
46379;BME280;32084;42.254;22.744;2022-07-06T03:21:45;95219.84;;;19.05;87.17
46379;BME280;32084;42.254;22.744;2022-07-06T03:24:11;95219.41;;;19.08;87.28
46379;BME280;32084;42.254;22.744;2022-07-06T03:26:37;95219.22;;;18.69;87.97
46379;BME280;32084;42.254;22.744;2022-07-06T03:29:03;95219.44;;;18.75;89.51
46379;BME280;32084;42.254;22.744;2022-07-06T03:31:29;95225.06;;;18.86;89.47
46379;BME280;32084;42.254;22.744;2022-07-06T03:33:55;95224.03;;;18.94;89.70
46379;BME280;32084;42.254;22.744;2022-07-06T03:36:21;95215.47;;;18.90;88.08
46379;BME280;32084;42.254;22.744;2022-07-06T03:38:47;95227.16;;;18.64;88.92
46379;BME280;32084;42.254;22.744;2022-07-06T03:41:13;95231.53;;;18.59;90.08
46379;BME280;32084;42.254;22.744;2022-07-06T03:43:39;95240.66;;;18.78;89.33
46379;BME280;32084;42.254;22.744;2022-07-06T03:46:05;95238.41;;;18.81;88.54
46379;BME280;32084;42.254;22.744;2022-07-06T03:48:31;95231.72;;;18.77;87.61
46379;BME280;32084;42.254;22.744;2022-07-06T03:50:57;95231.72;;;18.77;87.81
46379;BME280;32084;42.254;22.744;2022-07-06T03:53:23;95220.69;;;18.65;88.63
46379;BME280;32084;42.254;22.744;2022-07-06T03:55:49;95218.41;;;18.69;89.59
46379;BME280;32084;42.254;22.744;2022-07-06T03:58:34;95216.53;;;18.83;89.68
46379;BME280;32084;42.254;22.744;2022-07-06T04:01:00;95218.81;;;18.92;90.08
46379;BME280;32084;42.254;22.744;2022-07-06T04:03:26;95220.66;;;18.99;89.73
46379;BME280;32084;42.254;22.744;2022-07-06T04:05:52;95223.34;;;19.12;90.23
46379;BME280;32084;42.254;22.744;2022-07-06T04:08:18;95230.81;;;19.23;89.56
46379;BME280;32084;42.254;22.744;2022-07-06T04:10:45;95228.34;;;19.22;89.25
46379;BME280;32084;42.254;22.744;2022-07-06T04:13:11;95236.66;;;19.27;90.06
46379;BME280;32084;42.254;22.744;2022-07-06T04:15:37;95236.59;;;19.40;89.96
46379;BME280;32084;42.254;22.744;2022-07-06T04:18:03;95235.31;;;19.56;89.51
46379;BME280;32084;42.254;22.744;2022-07-06T04:20:30;95243.78;;;19.80;88.69
46379;BME280;32084;42.254;22.744;2022-07-06T04:22:56;95246.00;;;19.96;89.04
46379;BME280;32084;42.254;22.744;2022-07-06T04:25:24;95244.03;;;20.10;87.10
46379;BME280;32084;42.254;22.744;2022-07-06T04:27:50;95250.84;;;20.19;87.11
46379;BME280;32084;42.254;22.744;2022-07-06T04:30:16;95255.72;;;20.42;86.50
46379;BME280;32084;42.254;22.744;2022-07-06T04:32:42;95262.28;;;20.60;84.04
46379;BME280;32084;42.254;22.744;2022-07-06T04:35:08;95256.72;;;20.80;83.81
46379;BME280;32084;42.254;22.744;2022-07-06T04:37:34;95250.09;;;20.94;82.97
46379;BME280;32084;42.254;22.744;2022-07-06T04:40:00;95252.44;;;21.09;81.58
46379;BME280;32084;42.254;22.744;2022-07-06T04:42:26;95254.28;;;21.15;80.99
46379;BME280;32084;42.254;22.744;2022-07-06T04:44:52;95267.81;;;21.40;82.06
46379;BME280;32084;42.254;22.744;2022-07-06T04:47:18;95263.31;;;21.53;80.71
46379;BME280;32084;42.254;22.744;2022-07-06T04:49:44;95264.78;;;21.55;78.98
46379;BME280;32084;42.254;22.744;2022-07-06T04:52:10;95272.41;;;21.65;79.30
46379;BME280;32084;42.254;22.744;2022-07-06T04:54:36;95275.34;;;21.63;81.14
46379;BME280;32084;42.254;22.744;2022-07-06T04:57:03;95278.34;;;21.74;80.64
46379;BME280;32084;42.254;22.744;2022-07-06T04:59:29;95276.31;;;21.69;80.64
46379;BME280;32084;42.254;22.744;2022-07-06T05:01:55;95286.28;;;21.75;81.87
46379;BME280;32084;42.254;22.744;2022-07-06T05:04:21;95281.53;;;21.52;81.40
46379;BME280;32084;42.254;22.744;2022-07-06T05:06:47;95289.38;;;21.60;81.32
46379;BME280;32084;42.254;22.744;2022-07-06T05:09:13;95283.41;;;21.70;81.76
46379;BME280;32084;42.254;22.744;2022-07-06T05:11:39;95277.47;;;21.80;80.25
46379;BME280;32084;42.254;22.744;2022-07-06T05:14:06;95295.75;;;21.91;80.71
46379;BME280;32084;42.254;22.744;2022-07-06T05:16:32;95290.63;;;22.13;80.28
46379;BME280;32084;42.254;22.744;2022-07-06T05:18:58;95285.91;;;22.20;76.39
46379;BME280;32084;42.254;22.744;2022-07-06T05:21:24;95292.66;;;22.18;79.85
46379;BME280;32084;42.254;22.744;2022-07-06T05:23:50;95277.53;;;22.22;79.53
46379;BME280;32084;42.254;22.744;2022-07-06T05:26:17;95283.16;;;22.69;75.86
46379;BME280;32084;42.254;22.744;2022-07-06T05:28:43;95289.66;;;23.22;74.39
46379;BME280;32084;42.254;22.744;2022-07-06T05:31:09;95292.59;;;23.44;70.75
46379;BME280;32084;42.254;22.744;2022-07-06T05:33:35;95299.22;;;23.36;73.58
46379;BME280;32084;42.254;22.744;2022-07-06T05:36:01;95297.44;;;23.07;72.06
46379;BME280;32084;42.254;22.744;2022-07-06T05:38:27;95301.41;;;22.80;74.16
46379;BME280;32084;42.254;22.744;2022-07-06T05:40:53;95294.81;;;23.00;72.24
46379;BME280;32084;42.254;22.744;2022-07-06T05:43:19;95290.88;;;22.84;73.77
46379;BME280;32084;42.254;22.744;2022-07-06T05:45:45;95294.06;;;22.81;75.10
46379;BME280;32084;42.254;22.744;2022-07-06T05:48:11;95302.00;;;22.83;76.56
46379;BME280;32084;42.254;22.744;2022-07-06T05:50:55;95296.81;;;22.93;75.18
46379;BME280;32084;42.254;22.744;2022-07-06T05:53:22;95292.84;;;23.07;74.25
46379;BME280;32084;42.254;22.744;2022-07-06T05:55:48;95292.47;;;23.15;69.43
46379;BME280;32084;42.254;22.744;2022-07-06T05:58:14;95296.75;;;23.23;70.83
46379;BME280;32084;42.254;22.744;2022-07-06T06:00:40;95295.19;;;23.39;70.45
46379;BME280;32084;42.254;22.744;2022-07-06T06:03:06;95291.03;;;23.48;70.59
46379;BME280;32084;42.254;22.744;2022-07-06T06:05:32;95294.38;;;23.62;70.30
46379;BME280;32084;42.254;22.744;2022-07-06T06:07:58;95295.03;;;23.69;70.38
46379;BME280;32084;42.254;22.744;2022-07-06T06:10:24;95291.03;;;23.84;69.01
46379;BME280;32084;42.254;22.744;2022-07-06T06:12:51;95295.75;;;23.88;69.76
46379;BME280;32084;42.254;22.744;2022-07-06T06:15:17;95302.66;;;23.91;70.70
46379;BME280;32084;42.254;22.744;2022-07-06T06:17:43;95302.50;;;23.97;70.05
46379;BME280;32084;42.254;22.744;2022-07-06T06:20:10;95300.97;;;23.90;70.62
46379;BME280;32084;42.254;22.744;2022-07-06T06:25:13;95307.38;;;23.95;71.04
46379;BME280;32084;42.254;22.744;2022-07-06T06:27:39;95306.03;;;24.10;70.79
46379;BME280;32084;42.254;22.744;2022-07-06T06:30:06;95296.50;;;24.12;70.96
46379;BME280;32084;42.254;22.744;2022-07-06T06:32:32;95287.97;;;24.09;71.92
46379;BME280;32084;42.254;22.744;2022-07-06T06:34:58;95288.56;;;24.11;71.01
46379;BME280;32084;42.254;22.744;2022-07-06T06:37:24;95291.00;;;24.24;70.47
46379;BME280;32084;42.254;22.744;2022-07-06T06:39:50;95284.47;;;24.25;70.44
46379;BME280;32084;42.254;22.744;2022-07-06T06:42:16;95289.25;;;24.18;67.97
46379;BME280;32084;42.254;22.744;2022-07-06T06:44:42;95300.34;;;24.40;70.62
46379;BME280;32084;42.254;22.744;2022-07-06T06:47:08;95301.47;;;24.56;66.03
46379;BME280;32084;42.254;22.744;2022-07-06T06:49:34;95297.09;;;24.55;67.34
46379;BME280;32084;42.254;22.744;2022-07-06T06:52:00;95296.59;;;24.58;66.34
46379;BME280;32084;42.254;22.744;2022-07-06T06:54:26;95297.09;;;24.55;66.52
46379;BME280;32084;42.254;22.744;2022-07-06T06:56:52;95290.66;;;24.78;67.27
46379;BME280;32084;42.254;22.744;2022-07-06T06:59:18;95296.16;;;24.95;65.34
46379;BME280;32084;42.254;22.744;2022-07-06T07:01:44;95288.34;;;24.87;64.27
46379;BME280;32084;42.254;22.744;2022-07-06T07:04:10;95285.38;;;25.05;65.59
46379;BME280;32084;42.254;22.744;2022-07-06T07:06:37;95290.84;;;25.05;65.95
46379;BME280;32084;42.254;22.744;2022-07-06T07:09:03;95294.66;;;25.21;65.80
46379;BME280;32084;42.254;22.744;2022-07-06T07:11:30;95289.09;;;25.16;64.85
46379;BME280;32084;42.254;22.744;2022-07-06T07:13:56;95296.91;;;25.24;64.98
46379;BME280;32084;42.254;22.744;2022-07-06T07:16:22;95292.34;;;25.47;66.36
46379;BME280;32084;42.254;22.744;2022-07-06T07:18:50;95281.50;;;25.57;63.09
46379;BME280;32084;42.254;22.744;2022-07-06T07:21:16;95286.63;;;25.70;65.45
46379;BME280;32084;42.254;22.744;2022-07-06T07:23:42;95283.84;;;25.65;64.99
46379;BME280;32084;42.254;22.744;2022-07-06T07:26:08;95278.03;;;25.62;63.46
46379;BME280;32084;42.254;22.744;2022-07-06T07:28:34;95278.81;;;25.79;65.25
46379;BME280;32084;42.254;22.744;2022-07-06T07:31:00;95278.47;;;25.93;63.00
46379;BME280;32084;42.254;22.744;2022-07-06T07:33:26;95281.94;;;25.88;62.88
46379;BME280;32084;42.254;22.744;2022-07-06T07:35:52;95277.72;;;25.97;62.52
46379;BME280;32084;42.254;22.744;2022-07-06T07:38:18;95278.72;;;26.13;62.29
46379;BME280;32084;42.254;22.744;2022-07-06T07:40:44;95269.88;;;26.33;60.71
46379;BME280;32084;42.254;22.744;2022-07-06T07:43:10;95276.13;;;26.51;60.29
46379;BME280;32084;42.254;22.744;2022-07-06T07:45:37;95277.50;;;26.53;59.38
46379;BME280;32084;42.254;22.744;2022-07-06T07:48:03;95269.03;;;26.55;61.60
46379;BME280;32084;42.254;22.744;2022-07-06T07:50:29;95274.72;;;26.48;60.29
46379;BME280;32084;42.254;22.744;2022-07-06T07:52:55;95276.94;;;26.51;60.25
46379;BME280;32084;42.254;22.744;2022-07-06T07:55:21;95275.75;;;26.42;60.40
46379;BME280;32084;42.254;22.744;2022-07-06T07:57:47;95276.00;;;26.62;60.00
46379;BME280;32084;42.254;22.744;2022-07-06T08:00:13;95274.63;;;26.65;58.56
46379;BME280;32084;42.254;22.744;2022-07-06T08:02:39;95269.97;;;26.93;57.32
46379;BME280;32084;42.254;22.744;2022-07-06T08:05:06;95262.69;;;27.08;56.69
46379;BME280;32084;42.254;22.744;2022-07-06T08:07:32;95263.06;;;27.22;56.24
46379;BME280;32084;42.254;22.744;2022-07-06T08:09:58;95255.72;;;27.28;55.18
46379;BME280;32084;42.254;22.744;2022-07-06T08:12:24;95255.00;;;26.78;57.49
46379;BME280;32084;42.254;22.744;2022-07-06T08:14:50;95258.81;;;26.50;59.90
46379;BME280;32084;42.254;22.744;2022-07-06T08:17:16;95255.75;;;27.01;58.64
46379;BME280;32084;42.254;22.744;2022-07-06T08:19:42;95260.03;;;26.86;55.08
46379;BME280;32084;42.254;22.744;2022-07-06T08:22:08;95265.84;;;26.63;57.52
46379;BME280;32084;42.254;22.744;2022-07-06T08:24:35;95264.06;;;26.52;57.00
46379;BME280;32084;42.254;22.744;2022-07-06T08:27:01;95263.75;;;26.48;56.39
46379;BME280;32084;42.254;22.744;2022-07-06T08:29:29;95264.28;;;26.72;56.92
46379;BME280;32084;42.254;22.744;2022-07-06T08:31:55;95259.50;;;26.90;54.18
46379;BME280;32084;42.254;22.744;2022-07-06T08:34:21;95259.06;;;27.03;53.55
46379;BME280;32084;42.254;22.744;2022-07-06T08:36:47;95253.72;;;26.86;55.74
46379;BME280;32084;42.254;22.744;2022-07-06T08:39:13;95255.88;;;26.84;55.21
46379;BME280;32084;42.254;22.744;2022-07-06T08:41:40;95264.28;;;26.72;56.76
46379;BME280;32084;42.254;22.744;2022-07-06T08:44:07;95261.38;;;26.57;56.35
46379;BME280;32084;42.254;22.744;2022-07-06T08:46:34;95264.56;;;27.03;56.48
46379;BME280;32084;42.254;22.744;2022-07-06T08:49:00;95267.03;;;27.04;54.29
46379;BME280;32084;42.254;22.744;2022-07-06T08:51:27;95270.13;;;27.51;53.95
46379;BME280;32084;42.254;22.744;2022-07-06T08:53:53;95272.16;;;27.65;54.44
46379;BME280;32084;42.254;22.744;2022-07-06T08:56:20;95273.44;;;27.48;53.09
46379;BME280;32084;42.254;22.744;2022-07-06T08:58:47;95266.28;;;27.14;56.39
46379;BME280;32084;42.254;22.744;2022-07-06T09:01:13;95272.75;;;26.98;55.71
46379;BME280;32084;42.254;22.744;2022-07-06T09:03:43;95271.31;;;26.90;54.82
46379;BME280;32084;42.254;22.744;2022-07-06T09:06:11;95269.28;;;26.80;54.42
46379;BME280;32084;42.254;22.744;2022-07-06T09:08:40;95272.22;;;27.01;55.69
46379;BME280;32084;42.254;22.744;2022-07-06T09:11:06;95278.66;;;27.17;54.44
46379;BME280;32084;42.254;22.744;2022-07-06T09:13:33;95269.31;;;27.50;54.96
46379;BME280;32084;42.254;22.744;2022-07-06T09:16:12;95275.25;;;27.84;52.13
46379;BME280;32084;42.254;22.744;2022-07-06T09:18:39;95265.56;;;28.24;53.56
46379;BME280;32084;42.254;22.744;2022-07-06T09:21:07;95269.97;;;28.26;52.77
46379;BME280;32084;42.254;22.744;2022-07-06T09:23:34;95270.03;;;27.83;53.28
46379;BME280;32084;42.254;22.744;2022-07-06T09:26:02;95269.97;;;27.68;54.29
46379;BME280;32084;42.254;22.744;2022-07-06T09:28:44;95269.19;;;27.77;53.72
46379;BME280;32084;42.254;22.744;2022-07-06T09:31:10;95268.78;;;28.01;52.33
46379;BME280;32084;42.254;22.744;2022-07-06T09:33:37;95268.78;;;28.01;52.17
46379;BME280;32084;42.254;22.744;2022-07-06T09:36:04;95266.09;;;28.16;54.12
46379;BME280;32084;42.254;22.744;2022-07-06T09:38:31;95260.53;;;28.01;53.08
46379;BME280;32084;42.254;22.744;2022-07-06T09:40:57;95258.22;;;27.82;52.96
46379;BME280;32084;42.254;22.744;2022-07-06T09:43:24;95257.22;;;27.46;55.39
46379;BME280;32084;42.254;22.744;2022-07-06T09:48:17;95259.25;;;26.91;54.29
46379;BME280;32084;42.254;22.744;2022-07-06T09:50:50;95257.88;;;26.88;55.27
46379;BME280;32084;42.254;22.744;2022-07-06T09:53:20;95254.75;;;26.53;54.51
46379;BME280;32084;42.254;22.744;2022-07-06T09:55:47;95253.41;;;26.82;56.03
46379;BME280;32084;42.254;22.744;2022-07-06T09:58:14;95257.28;;;27.24;53.76
46379;BME280;32084;42.254;22.744;2022-07-06T10:00:41;95259.09;;;27.40;54.38
46379;BME280;32084;42.254;22.744;2022-07-06T10:03:07;95249.31;;;27.55;52.81
46379;BME280;32084;42.254;22.744;2022-07-06T10:05:37;95247.44;;;27.23;53.00
46379;BME280;32084;42.254;22.744;2022-07-06T10:08:04;95259.38;;;27.06;52.99
46379;BME280;32084;42.254;22.744;2022-07-06T10:10:32;95255.50;;;26.70;54.69
46379;BME280;32084;42.254;22.744;2022-07-06T10:12:59;95256.09;;;26.50;54.96
46379;BME280;32084;42.254;22.744;2022-07-06T10:15:26;95258.09;;;26.33;54.77
46379;BME280;32084;42.254;22.744;2022-07-06T10:17:53;95255.84;;;26.02;56.28
46379;BME280;32084;42.254;22.744;2022-07-06T10:20:20;95257.47;;;25.81;57.40
46379;BME280;32084;42.254;22.744;2022-07-06T10:22:49;95256.34;;;25.77;59.09
46379;BME280;32084;42.254;22.744;2022-07-06T10:25:16;95253.41;;;25.84;57.75
46379;BME280;32084;42.254;22.744;2022-07-06T10:27:43;95258.28;;;25.82;57.44
46379;BME280;32084;42.254;22.744;2022-07-06T10:30:10;95248.75;;;25.84;57.97
46379;BME280;32084;42.254;22.744;2022-07-06T10:32:37;95241.41;;;26.07;58.82
46379;BME280;32084;42.254;22.744;2022-07-06T10:35:05;95243.69;;;26.15;60.29
46379;BME280;32084;42.254;22.744;2022-07-06T10:37:31;95236.28;;;26.16;56.96
46379;BME280;32084;42.254;22.744;2022-07-06T10:39:59;95241.72;;;26.10;55.62
46379;BME280;32084;42.254;22.744;2022-07-06T10:42:45;95240.03;;;26.09;57.03
46379;BME280;32084;42.254;22.744;2022-07-06T10:45:18;95242.06;;;26.19;56.87
46379;BME280;32084;42.254;22.744;2022-07-06T10:47:45;95242.59;;;26.43;56.44
46379;BME280;32084;42.254;22.744;2022-07-06T10:50:12;95241.84;;;26.75;53.99
46379;BME280;32084;42.254;22.744;2022-07-06T10:55:27;95247.59;;;26.74;53.42
46379;BME280;32084;42.254;22.744;2022-07-06T10:57:55;95240.78;;;26.81;53.69
46379;BME280;32084;42.254;22.744;2022-07-06T11:00:21;95240.41;;;26.67;54.46
46379;BME280;32084;42.254;22.744;2022-07-06T11:02:47;95247.28;;;26.48;55.16
46379;BME280;32084;42.254;22.744;2022-07-06T11:08:00;95248.56;;;26.35;56.55
46379;BME280;32084;42.254;22.744;2022-07-06T11:10:27;95245.91;;;26.45;56.08
46379;BME280;32084;42.254;22.744;2022-07-06T11:13:02;95232.44;;;26.66;54.21
46379;BME280;32084;42.254;22.744;2022-07-06T11:15:46;95235.44;;;26.97;53.61
46379;BME280;32084;42.254;22.744;2022-07-06T11:18:12;95238.72;;;27.31;54.08
46379;BME280;32084;42.254;22.744;2022-07-06T11:20:39;95231.16;;;27.54;54.38
46379;BME280;32084;42.254;22.744;2022-07-06T11:23:05;95227.91;;;27.57;53.11
46379;BME280;32084;42.254;22.744;2022-07-06T11:25:31;95215.63;;;27.75;51.08
46379;BME280;32084;42.254;22.744;2022-07-06T11:27:57;95220.69;;;27.45;51.95
46379;BME280;32084;42.254;22.744;2022-07-06T11:30:24;95208.19;;;27.22;52.90
46379;BME280;32084;42.254;22.744;2022-07-06T11:32:50;95211.09;;;27.05;52.48
46379;BME280;32084;42.254;22.744;2022-07-06T11:35:22;95212.25;;;26.77;52.19
46379;BME280;32084;42.254;22.744;2022-07-06T11:37:48;95211.19;;;26.83;53.22
46379;BME280;32084;42.254;22.744;2022-07-06T11:40:14;95207.44;;;26.95;52.59
46379;BME280;32084;42.254;22.744;2022-07-06T11:42:53;95202.75;;;26.95;52.79
46379;BME280;32084;42.254;22.744;2022-07-06T11:45:26;95200.03;;;26.95;52.39
46379;BME280;32084;42.254;22.744;2022-07-06T11:48:08;95209.34;;;26.94;53.02
46379;BME280;32084;42.254;22.744;2022-07-06T11:50:34;95214.13;;;26.77;52.15
46379;BME280;32084;42.254;22.744;2022-07-06T11:53:01;95206.25;;;26.85;53.08
46379;BME280;32084;42.254;22.744;2022-07-06T11:55:28;95208.78;;;26.92;53.01
46379;BME280;32084;42.254;22.744;2022-07-06T11:57:54;95210.66;;;26.86;51.74
46379;BME280;32084;42.254;22.744;2022-07-06T12:00:22;95210.22;;;27.00;52.38
46379;BME280;32084;42.254;22.744;2022-07-06T12:03:01;95195.41;;;27.38;52.30
46379;BME280;32084;42.254;22.744;2022-07-06T12:05:30;95200.22;;;27.69;52.95
46379;BME280;32084;42.254;22.744;2022-07-06T12:08:06;95198.09;;;27.86;50.64
46379;BME280;32084;42.254;22.744;2022-07-06T12:10:32;95194.84;;;27.94;50.22
46379;BME280;32084;42.254;22.744;2022-07-06T12:13:04;95188.78;;;27.92;51.63
46379;BME280;32084;42.254;22.744;2022-07-06T12:15:30;95181.41;;;27.93;50.10
46379;BME280;32084;42.254;22.744;2022-07-06T12:17:56;95175.81;;;27.82;49.88
46379;BME280;32084;42.254;22.744;2022-07-06T12:20:22;95190.19;;;28.00;51.23
46379;BME280;32084;42.254;22.744;2022-07-06T12:23:00;95180.84;;;27.91;49.43
46379;BME280;32084;42.254;22.744;2022-07-06T12:25:32;95177.56;;;28.09;49.43
46379;BME280;32084;42.254;22.744;2022-07-06T12:27:59;95184.06;;;27.82;50.17
46379;BME280;32084;42.254;22.744;2022-07-06T12:30:25;95180.09;;;27.58;49.30
46379;BME280;32084;42.254;22.744;2022-07-06T12:35:36;95172.22;;;27.72;49.71
46379;BME280;32084;42.254;22.744;2022-07-06T12:38:02;95168.88;;;27.70;48.67
46379;BME280;32084;42.254;22.744;2022-07-06T12:40:28;95171.06;;;27.57;48.75
46379;BME280;32084;42.254;22.744;2022-07-06T12:42:54;95157.94;;;27.75;48.61
46379;BME280;32084;42.254;22.744;2022-07-06T12:45:25;95156.00;;;27.75;51.14
46379;BME280;32084;42.254;22.744;2022-07-06T12:50:32;95153.88;;;27.30;50.71
46379;BME280;32084;42.254;22.744;2022-07-06T12:52:58;95156.28;;;27.21;49.85
46379;BME280;32084;42.254;22.744;2022-07-06T12:55:25;95154.63;;;27.20;49.76
46379;BME280;32084;42.254;22.744;2022-07-06T12:57:52;95161.50;;;27.17;50.18
46379;BME280;32084;42.254;22.744;2022-07-06T13:00:18;95159.00;;;27.16;52.62
46379;BME280;32084;42.254;22.744;2022-07-06T13:02:46;95150.25;;;27.24;52.10
46379;BME280;32084;42.254;22.744;2022-07-06T13:05:13;95159.16;;;27.36;50.25